Terminal Aerodrome Forecast
Issued by NWS

Home | Current Version | Previous Version | Text Only | Print | Product List | Glossary On
Versions: 1 2 3 4 5 6 7 8 9 10 11 12 13 14 15 16
000
FTUS41 KPBZ 272330
TAFZZV
TAF
KZZV 272330Z 2800/2824 33007KT P6SM BKN035
     FM280800 34004KT P6SM SCT040
     FM281500 35006KT P6SM BKN040=

USA.gov is the U.S. government's official web portal to all federal, state and local government web resources and services.